Albert Maersk — OUOW2 — position and weather

sailwx.info

Track history (hours):
 
Tides and Currents Weather Stations Pressure Air Temp Water Temp Dewpoint Dewpoint Depression Visibility Wind Speed Wind Dir Waves Ship Positions

Albert Maersk

Last reported at 2014-Aug-19 03:32 UTC. Time now 2014-Aug-20 20:30 UTC.
Position N 01°10' E 103°41'.

MMSI: 220259928.

Date/timePositionNaut miles runAvg speedWind from/ knotsBaromVisibWave heightAir tempDewpointWater temp
2014-Aug-19 03:32N 01°10' E 103°41'9 9.2
2014-Aug-19 02:33N 01°12' E 103°50'1313.2
2014-Aug-19 01:33N 01°16' E 104°03'  
2014-Aug-15 21:22N 22°34' E 114°16'0 0.0
2014-Aug-15 09:28N 22°34' E 114°16'0 0.0
2014-Aug-15 03:32N 22°34' E 114°16'19 4.4
2014-Aug-14 23:18N 22°18' E 114°06'2 0.1
2014-Aug-13 20:11N 22°20' E 114°07'  
2014-Aug-11 15:24N 22°53' E 116°57'1010.6
2014-Aug-11 14:27N 22°57' E 117°07'1110.6
2014-Aug-11 13:26N 23°02' E 117°17'5310.9
2014-Aug-11 08:34N 23°34' E 118°04'1212.4
2014-Aug-11 07:34N 23°41' E 118°15'1212.2
2014-Aug-11 06:33N 23°48' E 118°26'1312.6
2014-Aug-11 05:33N 23°56' E 118°36'4811.9
2014-Aug-11 01:30N 24°28' E 119°17'35311.0
2014-Aug-09 17:23N 29°33' E 122°34'1113.0
2014-Aug-09 16:33N 29°41' E 122°25'1312.5
2014-Aug-09 15:33N 29°49' E 122°14'1212.0
2014-Aug-09 14:33N 29°55' E 122°02'1010.2
2014-Aug-09 13:33N 29°57' E 121°51'1 0.7
2014-Aug-09 12:33N 29°57' E 121°51'0 0.0
2014-Aug-09 11:33N 29°57' E 121°51'0 0.0
2014-Aug-09 10:33N 29°57' E 121°51'0 0.0
2014-Aug-09 09:33N 29°57' E 121°51'0 0.0
2014-Aug-09 08:33N 29°57' E 121°51'0 0.0
2014-Aug-09 07:33N 29°57' E 121°51'0 0.0
2014-Aug-09 06:33N 29°57' E 121°51'0 0.0
2014-Aug-09 05:33N 29°57' E 121°51'0 0.0
2014-Aug-09 04:33N 29°57' E 121°51'0 0.0
2014-Aug-09 03:33N 29°57' E 121°51'  
Track history (hours):
 
Tides and Currents Weather Stations Pressure Air Temp Water Temp Dewpoint Dewpoint Depression Visibility Wind Speed Wind Dir Waves Ship Positions

Albert Maersk

Last reported at 2014-Aug-19 03:32 UTC. Time now 2014-Aug-20 20:30 UTC.
Position N 01°10' E 103°41'.

MMSI: 220259928.

Date/timePositionNaut miles runAvg speedWind from/ knotsBaromVisibWave heightAir tempDewpointWater temp
2014-Aug-19 03:32N 01°10' E 103°41'9 9.2
2014-Aug-19 02:33N 01°12' E 103°50'1313.2
2014-Aug-19 01:33N 01°16' E 104°03'  
2014-Aug-15 21:22N 22°34' E 114°16'0 0.0
2014-Aug-15 09:28N 22°34' E 114°16'0 0.0
2014-Aug-15 03:32N 22°34' E 114°16'19 4.4
2014-Aug-14 23:18N 22°18' E 114°06'2 0.1
2014-Aug-13 20:11N 22°20' E 114°07'  
2014-Aug-11 15:24N 22°53' E 116°57'1010.6
2014-Aug-11 14:27N 22°57' E 117°07'1110.6
2014-Aug-11 13:26N 23°02' E 117°17'5310.9
2014-Aug-11 08:34N 23°34' E 118°04'1212.4
2014-Aug-11 07:34N 23°41' E 118°15'1212.2
2014-Aug-11 06:33N 23°48' E 118°26'1312.6
2014-Aug-11 05:33N 23°56' E 118°36'4811.9
2014-Aug-11 01:30N 24°28' E 119°17'35311.0
2014-Aug-09 17:23N 29°33' E 122°34'1113.0
2014-Aug-09 16:33N 29°41' E 122°25'1312.5
2014-Aug-09 15:33N 29°49' E 122°14'1212.0
2014-Aug-09 14:33N 29°55' E 122°02'1010.2
2014-Aug-09 13:33N 29°57' E 121°51'1 0.7
2014-Aug-09 12:33N 29°57' E 121°51'0 0.0
2014-Aug-09 11:33N 29°57' E 121°51'0 0.0
2014-Aug-09 10:33N 29°57' E 121°51'0 0.0
2014-Aug-09 09:33N 29°57' E 121°51'0 0.0
2014-Aug-09 08:33N 29°57' E 121°51'0 0.0
2014-Aug-09 07:33N 29°57' E 121°51'0 0.0
2014-Aug-09 06:33N 29°57' E 121°51'0 0.0
2014-Aug-09 05:33N 29°57' E 121°51'0 0.0
2014-Aug-09 04:33N 29°57' E 121°51'0 0.0
2014-Aug-09 03:33N 29°57' E 121°51'  

Dump ship's entire track history